Terminal Aerodrome Forecast
Issued by NWS

Home | Current Version | Previous Version | Text Only | Print | Product List | Glossary On
Versions: 1 2 3 4 5 6 7 8 9 10 11 12 13 14 15 16 17 18 19 20 21 22 23 24 25 26 27 28
000
FTUS44 KMAF 091210 CCA
TAFINK
TAF COR
KINK 091210Z 0912/1012 17006KT P6SM OVC035
      TEMPO 0912/0916 6SM BR OVC010
     FM091700 17009KT P6SM SCT050
     FM100000 12007KT P6SM SKC=

USA.gov is the U.S. government's official web portal to all federal, state and local government web resources and services.